Time;durP1;ratioP1;P1;durP2;ratioP2;P2;SDS_P1;SDS_P2;PMS_P1;PMS_P2;Temp;Humidity;BMP_temperature;BMP_pressure;BME280_temperature;BME280_humidity;BME280_pressure;Samples;Min_cycle;Max_cycle;Signal;HPM_P1;HPM_P2
2021/11/03 00:00:41;;;;;;;3.90;2.97;;;7.60;99.90;;;;;;5023561;28;20427;-72
2021/11/03 00:03:07;;;;;;;2.87;2.67;;;7.60;99.90;;;;;;5021583;28;20467;-73
2021/11/03 00:05:45;;;;;;;2.70;2.40;;;7.50;99.90;;;;;;5023889;28;20426;-72
2021/11/03 00:08:16;;;;;;;2.50;2.30;;;7.50;99.90;;;;;;5024220;28;20254;-73
2021/11/03 00:10:43;;;;;;;3.70;3.00;;;7.50;99.90;;;;;;5023877;28;20422;-71
2021/11/03 00:13:10;;;;;;;2.67;2.40;;;7.50;99.90;;;;;;5023676;28;20419;-72
2021/11/03 00:15:36;;;;;;;3.33;3.03;;;7.50;99.90;;;;;;5023586;28;20419;-73
2021/11/03 00:18:02;;;;;;;2.93;2.70;;;7.40;99.90;;;;;;5024119;28;20810;-71
2021/11/03 00:20:29;;;;;;;2.30;2.00;;;7.30;99.90;;;;;;5023401;28;20450;-73
2021/11/03 00:22:54;;;;;;;2.87;2.57;;;7.30;99.90;;;;;;5024699;28;20219;-72
2021/11/03 00:25:24;;;;;;;4.37;2.43;;;7.30;99.90;;;;;;5023646;28;20403;-73
2021/11/03 00:27:50;;;;;;;3.90;2.50;;;7.30;99.90;;;;;;5023658;28;20227;-73
2021/11/03 00:30:15;;;;;;;2.53;2.33;;;7.20;99.90;;;;;;5023272;28;20787;-73
2021/11/03 00:32:41;;;;;;;3.10;2.80;;;7.20;99.90;;;;;;5022108;28;20408;-71
2021/11/03 00:35:07;;;;;;;3.93;2.63;;;7.20;99.90;;;;;;5023197;28;20183;-72
2021/11/03 00:37:33;;;;;;;5.77;2.80;;;7.20;99.90;;;;;;5023183;28;20171;-72
2021/11/03 00:39:58;;;;;;;4.27;3.20;;;7.10;99.90;;;;;;5026832;28;20405;-72
2021/11/03 00:42:24;;;;;;;2.63;2.43;;;7.10;99.90;;;;;;5023009;28;20172;-72
2021/11/03 00:44:49;;;;;;;2.00;1.80;;;7.10;99.90;;;;;;5022746;28;20161;-72
2021/11/03 00:47:15;;;;;;;2.87;2.60;;;7.10;99.90;;;;;;5021852;28;20170;-70
2021/11/03 00:49:43;;;;;;;3.57;2.40;;;7.20;99.90;;;;;;5021509;28;20608;-73
2021/11/03 00:52:09;;;;;;;2.93;2.60;;;7.20;99.90;;;;;;5020421;28;20247;-71
2021/11/03 00:54:34;;;;;;;2.40;2.20;;;7.10;99.90;;;;;;5021767;28;20439;-72
2021/11/03 00:57:00;;;;;;;3.40;2.60;;;7.10;99.90;;;;;;5022202;28;20168;-72
2021/11/03 00:59:25;;;;;;;3.63;2.33;;;7.10;99.90;;;;;;5023670;28;20191;-72
2021/11/03 01:01:51;;;;;;;2.00;1.90;;;7.00;99.90;;;;;;5023795;28;20172;-71
2021/11/03 01:04:17;;;;;;;3.23;2.83;;;6.90;99.90;;;;;;5022981;28;20210;-73
2021/11/03 01:06:42;;;;;;;3.30;3.00;;;6.90;99.90;;;;;;5023534;28;20702;-73
2021/11/03 01:09:08;;;;;;;4.83;2.37;;;6.80;99.90;;;;;;5022865;28;20537;-73
2021/11/03 01:11:35;;;;;;;2.67;2.47;;;6.80;99.90;;;;;;5023175;28;20176;-72
2021/11/03 01:14:05;;;;;;;4.10;3.30;;;6.80;99.90;;;;;;5023114;28;20918;-73
2021/11/03 01:16:31;;;;;;;2.77;2.30;;;6.80;99.90;;;;;;5021389;28;20943;-71
2021/11/03 01:18:56;;;;;;;2.37;2.17;;;6.80;99.90;;;;;;5021655;28;20517;-71
2021/11/03 01:21:23;;;;;;;5.23;2.83;;;6.70;99.90;;;;;;5023486;28;20411;-71
2021/11/03 01:23:49;;;;;;;2.93;2.43;;;6.60;99.90;;;;;;5021090;28;20254;-73
2021/11/03 01:26:14;;;;;;;7.53;2.43;;;6.60;99.90;;;;;;5020453;28;20411;-72
2021/11/03 01:28:40;;;;;;;3.40;2.50;;;6.60;99.90;;;;;;5020918;28;20207;-71
2021/11/03 01:31:05;;;;;;;3.50;2.07;;;6.60;99.90;;;;;;5021756;28;20173;-73
2021/11/03 01:33:31;;;;;;;3.07;2.80;;;6.50;99.90;;;;;;5021696;28;20184;-73
2021/11/03 01:35:56;;;;;;;3.60;3.20;;;6.50;99.90;;;;;;5021029;28;20176;-72
2021/11/03 01:38:22;;;;;;;7.30;2.70;;;6.40;99.90;;;;;;5020719;28;20196;-71
2021/11/03 01:40:50;;;;;;;4.43;3.10;;;6.40;99.90;;;;;;5022089;28;20183;-73
2021/11/03 01:43:34;;;;;;;4.17;2.67;;;6.40;99.90;;;;;;5023557;28;20207;-73
2021/11/03 01:46:25;;;;;;;5.77;3.27;;;6.30;99.90;;;;;;5036223;28;20402;-73
2021/11/03 01:49:00;;;;;;;3.53;3.20;;;6.30;99.90;;;;;;5032790;28;20833;-72
2021/11/03 01:51:32;;;;;;;3.27;2.90;;;6.30;99.90;;;;;;5021208;28;20399;-73
2021/11/03 01:54:02;;;;;;;3.93;3.10;;;6.40;99.90;;;;;;5020181;28;20451;-72
2021/11/03 01:56:28;;;;;;;4.00;3.50;;;6.30;99.90;;;;;;5020683;28;20430;-72
2021/11/03 01:59:13;;;;;;;3.50;3.20;;;6.20;99.90;;;;;;5020465;28;20522;-72
2021/11/03 02:01:39;;;;;;;3.60;3.00;;;6.20;99.90;;;;;;5024360;28;20426;-71
2021/11/03 02:04:04;;;;;;;3.90;3.23;;;6.20;99.90;;;;;;5041774;28;20556;-72
2021/11/03 02:06:31;;;;;;;4.13;3.57;;;6.20;99.90;;;;;;5040596;28;20198;-73
2021/11/03 02:08:59;;;;;;;6.10;3.67;;;6.10;99.90;;;;;;5040091;28;20198;-73
2021/11/03 02:11:27;;;;;;;2.23;2.03;;;6.10;99.90;;;;;;5040422;28;20407;-73
2021/11/03 02:13:53;;;;;;;3.57;3.27;;;6.00;99.90;;;;;;5041047;28;20450;-72
2021/11/03 02:16:22;;;;;;;7.60;4.23;;;6.00;99.90;;;;;;5041195;28;20411;-73
2021/11/03 02:18:48;;;;;;;4.47;3.70;;;6.00;99.90;;;;;;5041850;28;20453;-73
2021/11/03 02:21:18;;;;;;;3.83;3.03;;;6.00;99.90;;;;;;5041650;28;20410;-73
2021/11/03 02:24:06;;;;;;;6.43;3.87;;;5.90;99.90;;;;;;5041110;28;20203;-72
2021/11/03 02:26:39;;;;;;;3.70;3.40;;;5.90;99.90;;;;;;5040478;28;20415;-71
2021/11/03 02:29:06;;;;;;;3.60;2.73;;;5.90;99.90;;;;;;5040876;28;20440;-71
2021/11/03 02:31:46;;;;;;;3.60;3.30;;;5.90;99.90;;;;;;5041749;28;20471;-71
2021/11/03 02:34:22;;;;;;;5.10;2.47;;;5.90;99.90;;;;;;5040446;28;20418;-72
2021/11/03 02:36:56;;;;;;;3.67;3.37;;;5.80;99.90;;;;;;5039659;28;20414;-74
2021/11/03 02:39:36;;;;;;;4.40;3.77;;;5.80;99.90;;;;;;5036545;28;20462;-73
2021/11/03 02:42:05;;;;;;;2.80;2.53;;;5.80;99.90;;;;;;5041527;28;20421;-72
2021/11/03 02:44:37;;;;;;;3.70;3.27;;;5.80;99.90;;;;;;5035512;28;20461;-72
2021/11/03 02:47:04;;;;;;;4.30;3.50;;;5.80;99.90;;;;;;5042231;28;20395;-72
2021/11/03 02:49:30;;;;;;;3.30;3.00;;;5.80;99.90;;;;;;5041180;28;20902;-71
2021/11/03 02:51:56;;;;;;;5.63;4.93;;;5.80;99.90;;;;;;5042280;28;20422;-72
2021/11/03 02:54:22;;;;;;;2.90;2.20;;;5.70;99.90;;;;;;5042250;28;20171;-72
2021/11/03 02:56:53;;;;;;;3.60;3.30;;;5.80;99.90;;;;;;5041605;28;20273;-73
2021/11/03 02:59:21;;;;;;;3.80;3.40;;;5.80;99.90;;;;;;5041891;28;20437;-71
2021/11/03 03:01:58;;;;;;;5.97;4.20;;;5.80;99.90;;;;;;5041765;28;20442;-72
2021/11/03 03:04:28;;;;;;;3.93;3.33;;;5.80;99.90;;;;;;5041795;28;20458;-73
2021/11/03 03:06:54;;;;;;;5.90;3.57;;;5.80;99.90;;;;;;5041662;28;20395;-73
2021/11/03 03:09:21;;;;;;;5.53;3.80;;;5.70;99.90;;;;;;5041724;28;20452;-73
2021/11/03 03:11:50;;;;;;;6.30;3.53;;;5.70;99.90;;;;;;5041479;28;20172;-72
2021/11/03 03:14:19;;;;;;;5.27;3.97;;;5.60;99.90;;;;;;5042711;28;20410;-73
2021/11/03 03:16:46;;;;;;;7.90;4.20;;;5.70;99.90;;;;;;5044777;28;20437;-73
2021/11/03 03:19:11;;;;;;;8.23;3.63;;;5.60;99.90;;;;;;5045123;28;20422;-72
2021/11/03 03:21:37;;;;;;;4.90;3.20;;;5.60;99.90;;;;;;5045615;28;20936;-72
2021/11/03 03:24:08;;;;;;;8.77;3.37;;;5.60;99.90;;;;;;5045083;28;20207;-73
2021/11/03 03:26:33;;;;;;;5.17;4.17;;;5.60;99.90;;;;;;5040592;28;20183;-71
2021/11/03 03:29:00;;;;;;;5.10;3.77;;;5.60;99.90;;;;;;5041882;28;20469;-72
2021/11/03 03:31:27;;;;;;;3.57;3.27;;;5.60;99.90;;;;;;5044158;28;20164;-72
2021/11/03 03:33:56;;;;;;;3.80;3.17;;;5.50;99.90;;;;;;5045118;28;20406;-73
2021/11/03 03:36:23;;;;;;;3.80;3.40;;;5.50;99.90;;;;;;5026482;28;20445;-72
2021/11/03 03:38:50;;;;;;;4.90;3.97;;;5.50;99.90;;;;;;5044326;28;20425;-72
2021/11/03 03:41:16;;;;;;;7.63;3.97;;;5.40;99.90;;;;;;5043891;28;20445;-72
2021/11/03 03:43:42;;;;;;;3.83;3.23;;;5.40;99.90;;;;;;5044543;28;20500;-70
2021/11/03 03:46:09;;;;;;;4.07;3.00;;;5.40;99.90;;;;;;5045150;28;20410;-71
2021/11/03 03:48:34;;;;;;;7.70;3.77;;;5.40;99.90;;;;;;5044271;28;20434;-72
2021/11/03 03:51:00;;;;;;;6.10;4.00;;;5.40;99.90;;;;;;5043950;28;20406;-70
2021/11/03 03:53:26;;;;;;;4.17;3.53;;;5.40;99.90;;;;;;5044323;28;20176;-73
2021/11/03 03:55:54;;;;;;;3.57;3.27;;;5.40;99.90;;;;;;5042564;28;20175;-73
2021/11/03 03:58:20;;;;;;;7.53;3.87;;;5.30;99.90;;;;;;5044339;28;20183;-73
2021/11/03 04:00:50;;;;;;;4.17;3.27;;;5.30;99.90;;;;;;5044007;28;20417;-73
2021/11/03 04:03:16;;;;;;;3.63;3.40;;;5.30;99.90;;;;;;5043460;28;20836;-73
2021/11/03 04:05:44;;;;;;;4.10;3.30;;;5.30;99.90;;;;;;5043604;28;20410;-73
2021/11/03 04:08:10;;;;;;;3.97;3.57;;;5.30;99.90;;;;;;5044322;28;20430;-72
2021/11/03 04:10:36;;;;;;;6.20;4.53;;;5.30;99.90;;;;;;5043744;28;20413;-73
2021/11/03 04:13:01;;;;;;;5.53;2.90;;;5.40;99.90;;;;;;5044983;28;20403;-73
2021/11/03 04:15:27;;;;;;;5.40;3.73;;;5.30;99.90;;;;;;5044032;28;20225;-71
2021/11/03 04:17:52;;;;;;;4.07;3.40;;;5.30;99.90;;;;;;5043681;28;20207;-72
2021/11/03 04:20:18;;;;;;;5.63;4.40;;;5.30;99.90;;;;;;5043035;28;20535;-71
2021/11/03 04:22:44;;;;;;;5.73;4.00;;;5.30;99.90;;;;;;5042835;28;20171;-72
2021/11/03 04:25:11;;;;;;;4.07;3.70;;;5.30;99.90;;;;;;5041783;28;20167;-72
2021/11/03 04:27:37;;;;;;;6.63;3.70;;;5.30;99.90;;;;;;5043675;28;20410;-71
2021/11/03 04:30:05;;;;;;;6.30;4.23;;;5.30;99.90;;;;;;5044263;28;20800;-72
2021/11/03 04:32:30;;;;;;;5.13;3.97;;;5.20;99.90;;;;;;5044510;28;20179;-71
2021/11/03 04:34:55;;;;;;;4.73;4.33;;;5.30;99.90;;;;;;5044498;28;20411;-71
2021/11/03 04:37:21;;;;;;;5.13;3.60;;;5.30;99.90;;;;;;5044433;28;20175;-72
2021/11/03 04:39:46;;;;;;;5.17;3.20;;;5.20;99.90;;;;;;5043569;28;20187;-72
2021/11/03 04:42:12;;;;;;;8.23;4.70;;;5.20;99.90;;;;;;5043659;28;20171;-71
2021/11/03 04:44:38;;;;;;;5.33;4.33;;;5.20;99.90;;;;;;5038205;28;20245;-72
2021/11/03 04:47:05;;;;;;;6.97;4.00;;;5.20;99.90;;;;;;5043562;28;20182;-70
2021/11/03 04:49:30;;;;;;;8.90;6.00;;;5.20;99.90;;;;;;5044920;28;20188;-72
2021/11/03 04:51:56;;;;;;;3.77;3.37;;;5.10;99.90;;;;;;5044584;28;20414;-71
2021/11/03 04:54:22;;;;;;;5.10;3.70;;;5.00;99.90;;;;;;5044453;28;20176;-72
2021/11/03 04:56:49;;;;;;;3.00;2.80;;;5.00;99.90;;;;;;5044808;28;20260;-72
2021/11/03 04:59:15;;;;;;;5.03;3.40;;;5.00;99.90;;;;;;5044461;28;20427;-72
2021/11/03 05:01:40;;;;;;;6.00;4.03;;;5.00;99.90;;;;;;5044556;28;20409;-71
2021/11/03 05:04:06;;;;;;;7.57;4.17;;;5.00;99.90;;;;;;5044079;28;20195;-70
2021/11/03 05:06:34;;;;;;;4.00;3.23;;;5.00;99.90;;;;;;5044671;28;20270;-72
2021/11/03 05:08:59;;;;;;;6.10;3.73;;;5.00;99.90;;;;;;5044897;28;20210;-72
2021/11/03 05:11:25;;;;;;;7.70;3.90;;;5.00;99.90;;;;;;5044997;28;20398;-72
2021/11/03 05:13:51;;;;;;;6.13;4.37;;;5.00;99.90;;;;;;5046462;28;20204;-72
2021/11/03 05:16:19;;;;;;;6.93;4.40;;;4.90;99.90;;;;;;5043302;28;20176;-72
2021/11/03 05:18:45;;;;;;;4.17;3.87;;;4.80;99.90;;;;;;5043136;28;20454;-72
2021/11/03 05:21:11;;;;;;;6.50;4.53;;;4.80;99.90;;;;;;5041938;28;20795;-72
2021/11/03 05:23:39;;;;;;;5.80;4.10;;;4.80;99.90;;;;;;5043026;28;20214;-73
2021/11/03 05:26:04;;;;;;;5.20;4.10;;;4.90;99.90;;;;;;5042901;28;20398;-73
2021/11/03 05:28:31;;;;;;;6.70;4.07;;;4.90;99.90;;;;;;5042365;28;20426;-73
2021/11/03 05:30:57;;;;;;;4.60;4.13;;;4.90;99.90;;;;;;5042146;28;20172;-72
2021/11/03 05:33:23;;;;;;;6.67;5.67;;;4.90;99.90;;;;;;5041023;28;20413;-71
2021/11/03 05:35:49;;;;;;;4.27;3.40;;;5.00;99.90;;;;;;5041848;28;20179;-73
2021/11/03 05:38:15;;;;;;;4.50;3.20;;;4.90;99.90;;;;;;5041410;28;20191;-72
2021/11/03 05:40:40;;;;;;;6.83;3.87;;;5.00;99.90;;;;;;5042038;28;20521;-73
2021/11/03 05:43:06;;;;;;;3.50;3.17;;;5.00;99.90;;;;;;5041807;28;20539;-70
2021/11/03 05:45:31;;;;;;;6.87;4.30;;;4.90;99.90;;;;;;5040608;28;20179;-71
2021/11/03 05:47:57;;;;;;;5.33;4.40;;;4.80;99.90;;;;;;5041348;28;20529;-70
2021/11/03 05:50:30;;;;;;;4.93;4.43;;;4.80;99.90;;;;;;5041256;28;20168;-72
2021/11/03 05:52:55;;;;;;;4.40;4.00;;;4.80;99.90;;;;;;5041646;28;20258;-71
2021/11/03 05:55:22;;;;;;;6.33;5.30;;;4.80;99.90;;;;;;5041530;28;20917;-73
2021/11/03 05:57:48;;;;;;;4.37;3.97;;;4.70;99.90;;;;;;5042771;28;20195;-71
2021/11/03 06:00:30;;;;;;;3.97;3.60;;;4.80;99.90;;;;;;5042724;28;20420;-71
2021/11/03 06:02:55;;;;;;;5.23;4.00;;;4.80;99.90;;;;;;5042325;28;20469;-72
2021/11/03 06:05:21;;;;;;;8.30;4.27;;;4.70;99.90;;;;;;5041913;28;20607;-71
2021/11/03 06:07:52;;;;;;;5.43;4.87;;;4.70;99.90;;;;;;5040488;28;20223;-72
2021/11/03 06:10:28;;;;;;;6.47;3.53;;;4.90;99.90;;;;;;5038450;28;20441;-71
2021/11/03 06:12:54;;;;;;;5.10;4.47;;;4.80;99.90;;;;;;5040252;28;20398;-71
2021/11/03 06:15:22;;;;;;;5.97;4.50;;;4.80;99.90;;;;;;5029362;28;20447;-73
2021/11/03 06:17:48;;;;;;;6.70;4.03;;;4.80;99.90;;;;;;5040574;28;20696;-71
2021/11/03 06:20:14;;;;;;;8.17;4.40;;;4.80;99.90;;;;;;5035931;28;20984;-72
2021/11/03 06:22:39;;;;;;;3.70;3.33;;;4.70;99.90;;;;;;5035633;28;20419;-72
2021/11/03 06:25:06;;;;;;;5.53;4.90;;;4.80;99.90;;;;;;5021069;28;20277;-72
2021/11/03 06:27:31;;;;;;;4.63;3.40;;;4.80;99.90;;;;;;5025862;28;20168;-72
2021/11/03 06:29:57;;;;;;;8.00;5.07;;;4.70;99.90;;;;;;5040777;28;20412;-72
2021/11/03 06:32:22;;;;;;;5.83;4.23;;;4.80;99.90;;;;;;5026450;28;20172;-71
2021/11/03 06:34:48;;;;;;;5.07;4.23;;;4.80;99.90;;;;;;5022150;28;20220;-73
2021/11/03 06:37:13;;;;;;;6.67;4.50;;;4.90;99.90;;;;;;5021636;28;20168;-73
2021/11/03 06:39:40;;;;;;;7.07;4.10;;;4.90;99.90;;;;;;5021573;28;20195;-72
2021/11/03 06:42:05;;;;;;;5.20;4.23;;;5.00;99.90;;;;;;5018937;28;20238;-72
2021/11/03 06:44:31;;;;;;;7.03;4.53;;;5.30;99.90;;;;;;5019864;28;20454;-73
2021/11/03 06:46:57;;;;;;;8.53;3.70;;;5.30;99.90;;;;;;5022043;28;20553;-71
2021/11/03 06:49:23;;;;;;;7.77;4.53;;;5.30;99.90;;;;;;5030703;28;20862;-72
2021/11/03 06:51:48;;;;;;;6.07;4.83;;;5.30;99.90;;;;;;5024626;28;20179;-72
2021/11/03 06:54:14;;;;;;;6.47;4.57;;;5.30;99.90;;;;;;5025742;28;20418;-72
2021/11/03 06:56:40;;;;;;;6.47;4.70;;;5.30;99.90;;;;;;5042483;28;20172;-72
2021/11/03 06:59:07;;;;;;;4.70;3.67;;;5.40;99.90;;;;;;5041454;28;20213;-71
2021/11/03 07:01:33;;;;;;;8.50;4.70;;;5.40;99.90;;;;;;5038132;28;20184;-73
2021/11/03 07:03:59;;;;;;;6.80;4.40;;;5.40;99.90;;;;;;5041341;28;20560;-72
2021/11/03 07:06:25;;;;;;;10.43;5.20;;;5.50;99.90;;;;;;5039367;28;20168;-71
2021/11/03 07:08:52;;;;;;;10.30;5.10;;;5.50;99.90;;;;;;5041201;28;20505;-73
2021/11/03 07:11:19;;;;;;;4.93;4.43;;;5.60;99.90;;;;;;5041538;28;20163;-72
2021/11/03 07:13:44;;;;;;;5.80;4.23;;;5.60;99.90;;;;;;5041402;28;20414;-71
2021/11/03 07:16:12;;;;;;;12.43;6.10;;;5.70;99.90;;;;;;5031638;28;20418;-73
2021/11/03 07:18:38;;;;;;;7.47;4.43;;;5.80;99.90;;;;;;5030210;28;20317;-73
2021/11/03 07:21:03;;;;;;;6.53;4.97;;;5.80;99.90;;;;;;5012400;28;20416;-74
2021/11/03 07:23:29;;;;;;;10.07;6.17;;;5.80;99.90;;;;;;5025185;28;20405;-74
2021/11/03 07:25:55;;;;;;;7.70;5.27;;;5.90;99.90;;;;;;5032021;28;20160;-73
2021/11/03 07:28:21;;;;;;;6.20;4.60;;;6.00;99.90;;;;;;5031842;28;20205;-71
2021/11/03 07:30:46;;;;;;;10.00;5.53;;;6.10;99.90;;;;;;5029709;28;20438;-73
2021/11/03 07:33:13;;;;;;;10.33;5.00;;;6.20;99.90;;;;;;5012196;28;20490;-73
2021/11/03 07:35:39;;;;;;;12.67;4.97;;;6.20;99.90;;;;;;5012420;28;20173;-73
2021/11/03 07:38:06;;;;;;;9.80;5.50;;;6.30;99.90;;;;;;5011937;28;20789;-74
2021/11/03 07:40:42;;;;;;;10.60;6.20;;;6.30;99.90;;;;;;5012003;28;20407;-74
2021/11/03 07:43:09;;;;;;;8.87;5.67;;;6.40;99.90;;;;;;5012693;28;20454;-74
2021/11/03 07:45:35;;;;;;;6.53;4.80;;;6.50;99.90;;;;;;5013843;28;20414;-74
2021/11/03 07:48:03;;;;;;;6.07;5.30;;;6.40;99.90;;;;;;5013292;28;20423;-73
2021/11/03 07:50:33;;;;;;;7.17;4.80;;;6.40;99.90;;;;;;5020278;28;20907;-73
2021/11/03 07:52:59;;;;;;;5.97;5.37;;;6.40;99.90;;;;;;5033435;28;20776;-73
2021/11/03 07:55:25;;;;;;;7.10;5.73;;;6.50;99.90;;;;;;5034758;28;20477;-73
2021/11/03 07:57:51;;;;;;;4.90;3.40;;;6.60;99.90;;;;;;5034267;28;20434;-75
2021/11/03 08:00:26;;;;;;;5.00;3.73;;;6.60;99.90;;;;;;5020677;28;20411;-73
2021/11/03 08:02:52;;;;;;;6.57;5.10;;;6.70;99.90;;;;;;5018527;28;20567;-73
2021/11/03 08:05:17;;;;;;;11.30;6.30;;;6.80;99.90;;;;;;5017828;28;20404;-72
2021/11/03 08:07:43;;;;;;;5.70;4.53;;;6.90;99.90;;;;;;5018475;28;20310;-72
2021/11/03 08:10:13;;;;;;;4.53;3.53;;;6.90;99.90;;;;;;5019742;28;20176;-73
2021/11/03 08:12:41;;;;;;;6.00;3.77;;;7.00;99.90;;;;;;5019131;28;20180;-73
2021/11/03 08:15:07;;;;;;;9.00;4.23;;;7.00;99.90;;;;;;5034877;28;20439;-73
2021/11/03 08:17:33;;;;;;;6.10;3.90;;;7.00;99.90;;;;;;5040381;28;20506;-73
2021/11/03 08:20:03;;;;;;;4.67;3.77;;;7.10;99.90;;;;;;5030862;28;20446;-73
2021/11/03 08:22:31;;;;;;;8.03;5.33;;;7.10;99.90;;;;;;5023433;28;20509;-73
2021/11/03 08:24:56;;;;;;;7.10;4.10;;;7.20;99.90;;;;;;5038646;28;20549;-73
2021/11/03 08:27:23;;;;;;;4.97;4.47;;;7.30;99.90;;;;;;5021974;28;20458;-72
2021/11/03 08:29:50;;;;;;;7.13;4.50;;;7.30;99.90;;;;;;5022073;28;20342;-73
2021/11/03 08:32:20;;;;;;;4.93;3.73;;;7.30;99.90;;;;;;5037321;28;20412;-72
2021/11/03 08:34:46;;;;;;;6.80;4.50;;;7.40;99.90;;;;;;5037944;28;20422;-72
2021/11/03 08:37:15;;;;;;;5.80;3.80;;;7.50;99.90;;;;;;5038672;28;20430;-72
2021/11/03 08:39:45;;;;;;;5.33;4.07;;;7.60;99.90;;;;;;5037643;28;20192;-72
2021/11/03 08:42:11;;;;;;;6.97;4.47;;;7.70;99.90;;;;;;5038220;28;20410;-72
2021/11/03 08:44:40;;;;;;;4.83;3.47;;;7.70;99.90;;;;;;5038622;28;20470;-73
2021/11/03 08:47:06;;;;;;;4.50;3.63;;;7.80;99.90;;;;;;5033509;28;20427;-73
2021/11/03 08:49:33;;;;;;;7.00;3.80;;;7.80;99.90;;;;;;5018627;28;20445;-73
2021/11/03 08:51:59;;;;;;;5.60;3.97;;;7.80;99.90;;;;;;5018080;28;20450;-72
2021/11/03 08:54:24;;;;;;;4.93;3.80;;;7.70;99.90;;;;;;5018069;28;20825;-73
2021/11/03 08:56:50;;;;;;;8.53;4.43;;;7.80;99.90;;;;;;5016815;28;20173;-73
2021/11/03 08:59:16;;;;;;;5.73;3.63;;;7.80;99.90;;;;;;5022920;28;20299;-73
2021/11/03 09:01:44;;;;;;;6.53;3.90;;;7.80;99.90;;;;;;5037546;28;20610;-72
2021/11/03 09:04:10;;;;;;;4.67;3.53;;;7.90;99.90;;;;;;5035752;28;20254;-73
2021/11/03 09:06:37;;;;;;;8.40;4.67;;;8.00;99.90;;;;;;5024871;28;20415;-73
2021/11/03 09:09:04;;;;;;;6.90;3.83;;;8.10;99.90;;;;;;5030034;28;20442;-74
2021/11/03 09:11:29;;;;;;;4.20;3.73;;;8.10;99.90;;;;;;5036268;28;20501;-74
2021/11/03 09:13:55;;;;;;;3.27;2.97;;;8.20;99.90;;;;;;5024704;28;20459;-71
2021/11/03 09:16:21;;;;;;;8.03;4.13;;;8.20;99.90;;;;;;5018420;28;20272;-72
2021/11/03 09:18:48;;;;;;;4.50;3.60;;;8.40;99.90;;;;;;5016915;28;20482;-70
2021/11/03 09:21:14;;;;;;;5.50;3.40;;;8.60;99.90;;;;;;5015578;28;20432;-70
2021/11/03 09:23:42;;;;;;;12.07;4.30;;;8.70;99.90;;;;;;5029152;28;20795;-74
2021/11/03 09:26:07;;;;;;;7.20;4.70;;;8.80;99.90;;;;;;5035352;28;20433;-71
2021/11/03 09:28:33;;;;;;;6.10;3.30;;;8.80;99.90;;;;;;5033553;28;20942;-73
2021/11/03 09:31:04;;;;;;;6.63;4.13;;;8.90;99.90;;;;;;5023197;28;20179;-73
2021/11/03 09:33:33;;;;;;;4.27;3.20;;;9.10;99.90;;;;;;5020263;28;20497;-73
2021/11/03 09:36:00;;;;;;;9.07;3.50;;;9.20;99.90;;;;;;5020126;28;20446;-72
2021/11/03 09:38:27;;;;;;;6.73;3.97;;;9.30;99.90;;;;;;5021148;28;20443;-73
2021/11/03 09:41:13;;;;;;;4.30;3.53;;;9.50;99.90;;;;;;5020944;28;20407;-73
2021/11/03 09:43:42;;;;;;;3.73;3.43;;;9.50;99.90;;;;;;5020225;28;20553;-72
2021/11/03 09:46:35;;;;;;;3.40;3.00;;;9.60;99.90;;;;;;5018312;28;20411;-71
2021/11/03 09:49:18;;;;;;;4.40;4.00;;;9.70;99.90;;;;;;5018444;28;20461;-72
2021/11/03 09:52:04;;;;;;;3.33;3.03;;;9.50;99.90;;;;;;5027896;28;20564;-72
2021/11/03 09:54:34;;;;;;;5.80;4.00;;;9.70;99.90;;;;;;5018624;28;20472;-73
2021/11/03 09:57:39;;;;;;;4.17;2.97;;;9.90;99.90;;;;;;5021057;28;20806;-73
2021/11/03 10:00:37;;;;;;;5.20;2.97;;;9.80;99.90;;;;;;5020794;28;20433;-73
2021/11/03 10:03:44;;;;;;;4.57;3.70;;;9.70;99.90;;;;;;5032014;28;21029;-73
2021/11/03 10:06:33;;;;;;;6.23;4.13;;;9.90;99.90;;;;;;5017004;28;20407;-73
2021/11/03 10:08:59;;;;;;;5.93;3.20;;;10.00;99.90;;;;;;5023276;28;20492;-71
2021/11/03 10:11:27;;;;;;;5.10;3.87;;;9.80;99.90;;;;;;5035614;28;20406;-73
2021/11/03 10:13:55;;;;;;;3.73;3.37;;;10.00;99.90;;;;;;5016885;28;20191;-74
2021/11/03 10:16:20;;;;;;;4.43;3.87;;;10.00;99.90;;;;;;5018677;28;20443;-72
2021/11/03 10:18:52;;;;;;;4.77;3.10;;;10.20;99.90;;;;;;5029427;28;20469;-73
2021/11/03 10:21:22;;;;;;;5.63;3.80;;;10.20;99.90;;;;;;5035656;28;20171;-72
2021/11/03 10:24:08;;;;;;;3.90;3.00;;;10.40;99.90;;;;;;5030859;28;20881;-73
2021/11/03 10:26:54;;;;;;;5.73;3.57;;;10.30;99.90;;;;;;5035691;28;20394;-72
2021/11/03 10:29:24;;;;;;;3.87;3.00;;;10.20;99.90;;;;;;5026914;28;20423;-73
2021/11/03 10:31:57;;;;;;;4.73;3.40;;;10.20;99.90;;;;;;5012822;28;20392;-72
2021/11/03 10:34:34;;;;;;;4.53;3.10;;;10.40;99.90;;;;;;5012733;28;20406;-73
2021/11/03 10:37:21;;;;;;;3.40;2.93;;;10.40;99.90;;;;;;5019612;28;20425;-72
2021/11/03 10:40:04;;;;;;;4.50;3.30;;;10.40;99.90;;;;;;5031107;28;20437;-71
2021/11/03 10:42:45;;;;;;;3.80;3.50;;;10.80;99.90;;;;;;5032813;28;20407;-71
2021/11/03 10:45:22;;;;;;;3.90;2.63;;;10.50;99.90;;;;;;5034039;28;20441;-73
2021/11/03 10:48:23;;;;;;;3.30;3.10;;;10.70;99.90;;;;;;5014856;28;20398;-72
2021/11/03 10:50:54;;;;;;;4.30;3.50;;;10.50;99.90;;;;;;5014097;28;20863;-72
2021/11/03 10:53:21;;;;;;;3.70;2.80;;;10.50;99.90;;;;;;5013649;28;20440;-72
2021/11/03 10:56:04;;;;;;;4.37;2.80;;;10.50;99.90;;;;;;5014269;28;20410;-72
2021/11/03 10:59:15;;;;;;;3.17;2.87;;;10.70;99.90;;;;;;5012381;28;20949;-72
2021/11/03 11:01:47;;;;;;;5.20;2.90;;;10.80;99.90;;;;;;5003914;28;20418;-75
2021/11/03 11:04:18;;;;;;;4.00;2.60;;;10.80;99.90;;;;;;5027539;28;20948;-74
2021/11/03 11:06:47;;;;;;;4.53;3.23;;;10.90;99.90;;;;;;5031903;28;20414;-72
2021/11/03 11:09:41;;;;;;;4.50;2.93;;;11.00;99.90;;;;;;5031848;28;20415;-73
2021/11/03 11:12:21;;;;;;;4.57;3.40;;;10.90;99.90;;;;;;5021639;28;20415;-74
2021/11/03 11:14:47;;;;;;;5.93;3.00;;;10.90;99.90;;;;;;5015171;28;20407;-71
2021/11/03 11:17:23;;;;;;;5.93;3.07;;;10.90;99.90;;;;;;5023501;28;20450;-71
2021/11/03 11:20:29;;;;;;;5.50;3.83;;;10.90;99.90;;;;;;5027226;28;20499;-72
2021/11/03 11:23:15;;;;;;;4.97;3.40;;;11.00;99.90;;;;;;5030303;28;20925;-72
2021/11/03 11:26:01;;;;;;;3.70;3.13;;;11.00;99.90;;;;;;5034491;28;20497;-72
2021/11/03 11:28:45;;;;;;;3.27;2.97;;;11.00;99.90;;;;;;5034141;28;20505;-71
2021/11/03 11:31:44;;;;;;;5.00;3.40;;;11.20;99.90;;;;;;5034462;28;20410;-70
2021/11/03 11:34:34;;;;;;;4.10;2.77;;;11.50;99.90;;;;;;5034269;28;20442;-75
2021/11/03 11:37:13;;;;;;;3.13;2.87;;;11.60;99.90;;;;;;5027868;28;20437;-73
2021/11/03 11:39:53;;;;;;;3.60;2.90;;;11.70;99.90;;;;;;5018889;28;20442;-72
2021/11/03 11:42:44;;;;;;;3.13;2.83;;;11.30;99.90;;;;;;5018811;28;20406;-72
2021/11/03 11:45:20;;;;;;;2.80;2.50;;;11.30;99.90;;;;;;5030926;28;20430;-71
2021/11/03 11:47:51;;;;;;;3.07;2.67;;;11.60;99.90;;;;;;5038509;28;20445;-73
2021/11/03 11:50:32;;;;;;;5.23;3.40;;;11.50;99.90;;;;;;5038129;28;20452;-71
2021/11/03 11:52:59;;;;;;;3.63;2.37;;;11.70;99.90;;;;;;5038816;28;20555;-70
2021/11/03 11:55:26;;;;;;;2.80;2.20;;;11.80;99.90;;;;;;5038771;28;20405;-72
2021/11/03 11:58:07;;;;;;;2.77;2.57;;;11.40;99.90;;;;;;5038824;28;20425;-72
2021/11/03 12:00:36;;;;;;;7.50;2.80;;;11.70;99.90;;;;;;5032788;28;20406;-71
2021/11/03 12:03:06;;;;;;;3.00;2.70;;;12.00;99.90;;;;;;5018267;28;20445;-73
2021/11/03 12:05:45;;;;;;;4.13;2.90;;;12.00;99.90;;;;;;5029542;28;20553;-72
2021/11/03 12:08:11;;;;;;;3.17;2.23;;;11.90;99.90;;;;;;5032686;28;20445;-73
2021/11/03 12:10:55;;;;;;;3.80;2.87;;;11.90;99.90;;;;;;5016631;28;20411;-72
2021/11/03 12:13:27;;;;;;;1.67;1.50;;;11.60;99.90;;;;;;5015940;28;20172;-70
2021/11/03 12:15:52;;;;;;;2.80;1.83;;;11.70;99.90;;;;;;5027643;28;20414;-72
2021/11/03 12:18:24;;;;;;;2.97;2.30;;;11.90;99.90;;;;;;5035718;28;20826;-71
2021/11/03 12:21:13;;;;;;;4.50;2.93;;;11.90;99.90;;;;;;5034640;28;20171;-72
2021/11/03 12:24:00;;;;;;;5.90;3.43;;;12.00;99.90;;;;;;5028718;28;20450;-69
2021/11/03 12:26:26;;;;;;;3.20;2.90;;;11.90;99.90;;;;;;5033994;28;20413;-69
2021/11/03 12:28:54;;;;;;;3.90;2.63;;;11.90;99.90;;;;;;5022220;28;20805;-69
2021/11/03 12:31:24;;;;;;;3.40;3.10;;;11.70;99.90;;;;;;5014503;28;20172;-69
2021/11/03 12:34:24;;;;;;;2.60;2.30;;;11.80;99.90;;;;;;5014655;28;20778;-68
2021/11/03 12:36:54;;;;;;;3.43;2.27;;;11.90;99.90;;;;;;5014300;28;20407;-69
2021/11/03 12:39:29;;;;;;;2.27;1.87;;;11.80;99.90;;;;;;5014036;28;20911;-69
2021/11/03 12:41:57;;;;;;;2.50;1.60;;;11.80;99.90;;;;;;5014090;28;20492;-69
2021/11/03 12:44:36;;;;;;;3.83;3.43;;;12.00;99.90;;;;;;5013944;28;20463;-70
2021/11/03 12:47:02;;;;;;;2.47;2.27;;;11.80;99.90;;;;;;5013111;28;20415;-70
2021/11/03 12:49:28;;;;;;;2.90;2.60;;;11.60;99.90;;;;;;5013888;28;20966;-70
2021/11/03 12:51:58;;;;;;;4.53;2.67;;;11.60;99.90;;;;;;5013960;28;20426;-70
2021/11/03 12:54:33;;;;;;;3.43;2.60;;;11.70;99.90;;;;;;5020479;28;20209;-69
2021/11/03 12:57:18;;;;;;;2.40;2.10;;;11.70;99.90;;;;;;5022035;28;20422;-71
2021/11/03 13:00:04;;;;;;;1.90;1.63;;;11.80;99.90;;;;;;5021510;28;20422;-72
2021/11/03 13:02:37;;;;;;;2.77;1.93;;;11.80;99.90;;;;;;5036832;28;20769;-72
2021/11/03 13:05:23;;;;;;;3.90;2.20;;;11.50;99.90;;;;;;5037993;28;20496;-72
2021/11/03 13:07:50;;;;;;;2.33;1.80;;;11.40;99.90;;;;;;5039135;28;20460;-72
2021/11/03 13:10:18;;;;;;;2.90;2.40;;;11.50;99.90;;;;;;5038980;28;20781;-72